Time;durP1;ratioP1;P1;durP2;ratioP2;P2;SDS_P1;SDS_P2;PMS_P1;PMS_P2;Temp;Humidity;BMP_temperature;BMP_pressure;BME280_temperature;BME280_humidity;BME280_pressure;Samples;Min_cycle;Max_cycle;Signal;HPM_P1;HPM_P2
2024/01/04 00:01:35;;;;;;;4.80;3.92;;;6.60;99.90;;;;;;5001347;28;20451;-88
2024/01/04 00:04:00;;;;;;;4.25;3.85;;;6.50;99.90;;;;;;5000601;28;20049;-88
2024/01/04 00:06:26;;;;;;;4.28;3.88;;;6.60;99.90;;;;;;5017116;28;20042;-88
2024/01/04 00:08:52;;;;;;;4.90;4.47;;;6.50;99.90;;;;;;5016834;28;20099;-87
2024/01/04 00:11:17;;;;;;;4.40;4.00;;;6.50;99.90;;;;;;5034010;28;20080;-87
2024/01/04 00:13:43;;;;;;;4.38;4.00;;;6.50;99.90;;;;;;5016870;28;20474;-87
2024/01/04 00:16:11;;;;;;;4.55;4.25;;;6.50;99.90;;;;;;5001137;28;20102;-88
2024/01/04 00:18:37;;;;;;;4.43;4.13;;;6.50;99.90;;;;;;5016500;28;20128;-87
2024/01/04 00:21:03;;;;;;;4.47;4.18;;;6.50;99.90;;;;;;5000127;28;20155;-87
2024/01/04 00:23:31;;;;;;;4.75;4.35;;;6.50;99.90;;;;;;5033300;28;20053;-85
2024/01/04 00:25:57;;;;;;;4.13;3.83;;;6.50;99.90;;;;;;5033212;28;20060;-87
2024/01/04 00:28:23;;;;;;;3.90;3.70;;;6.50;99.90;;;;;;5000197;28;20195;-86
2024/01/04 00:30:49;;;;;;;4.55;4.20;;;6.40;99.90;;;;;;5016485;28;20060;-86
2024/01/04 00:33:15;;;;;;;5.57;4.20;;;6.40;99.90;;;;;;4999949;28;20049;-86
2024/01/04 00:35:40;;;;;;;4.20;3.90;;;6.40;99.90;;;;;;5000344;28;20132;-87
2024/01/04 00:38:07;;;;;;;4.10;3.80;;;6.40;99.90;;;;;;5016398;28;20045;-87
2024/01/04 00:40:35;;;;;;;4.03;3.70;;;6.40;99.90;;;;;;5032538;28;20041;-87
2024/01/04 00:43:01;;;;;;;3.97;3.67;;;6.40;99.90;;;;;;5001227;28;20386;-88
2024/01/04 00:45:27;;;;;;;3.58;3.38;;;6.40;99.90;;;;;;5017053;28;20045;-86
2024/01/04 00:47:52;;;;;;;3.80;3.55;;;6.30;99.90;;;;;;4999983;28;20042;-87
2024/01/04 00:50:18;;;;;;;4.03;3.72;;;6.30;99.90;;;;;;4999781;28;20049;-85
2024/01/04 00:52:44;;;;;;;3.75;3.00;;;6.30;99.90;;;;;;5016355;28;20041;-88
2024/01/04 00:55:10;;;;;;;4.07;3.75;;;6.30;99.90;;;;;;5016568;28;20049;-87
2024/01/04 00:57:35;;;;;;;4.32;3.90;;;6.30;99.90;;;;;;5000116;28;20049;-88
2024/01/04 01:00:03;;;;;;;4.53;3.78;;;6.20;99.90;;;;;;5015920;28;20363;-87
2024/01/04 01:02:28;;;;;;;4.55;4.13;;;6.30;99.90;;;;;;5016199;28;20508;-88
2024/01/04 01:04:54;;;;;;;4.90;4.60;;;6.20;99.90;;;;;;5016216;28;20094;-87
2024/01/04 01:07:20;;;;;;;4.60;4.30;;;6.10;99.90;;;;;;5000550;28;20187;-87
2024/01/04 01:09:45;;;;;;;4.93;4.53;;;6.20;99.90;;;;;;5015744;28;20106;-87
2024/01/04 01:12:11;;;;;;;5.03;4.60;;;6.00;99.90;;;;;;5001503;28;20095;-86
2024/01/04 01:14:37;;;;;;;5.97;4.45;;;6.00;99.90;;;;;;5020834;28;20111;-89
2024/01/04 01:17:03;;;;;;;5.55;4.40;;;6.00;99.90;;;;;;5036515;28;20092;-87
2024/01/04 01:19:28;;;;;;;5.07;4.68;;;6.00;99.90;;;;;;5003637;28;20134;-88
2024/01/04 01:21:54;;;;;;;5.30;4.90;;;6.00;99.90;;;;;;5004501;28;20053;-88
2024/01/04 01:24:20;;;;;;;5.03;4.72;;;5.90;99.90;;;;;;5020247;28;20081;-87
2024/01/04 01:26:45;;;;;;;4.75;4.38;;;5.90;99.90;;;;;;5003600;28;20049;-88
2024/01/04 01:29:11;;;;;;;3.90;3.70;;;5.90;99.90;;;;;;5019578;28;20052;-85
2024/01/04 01:31:41;;;;;;;3.50;3.30;;;5.80;99.90;;;;;;5003514;28;20045;-87
2024/01/04 01:34:07;;;;;;;4.20;4.00;;;5.80;99.90;;;;;;5019916;28;20045;-88
2024/01/04 01:36:32;;;;;;;4.32;4.03;;;5.80;99.90;;;;;;5003522;28;20052;-88
2024/01/04 01:38:58;;;;;;;4.10;3.70;;;5.70;99.90;;;;;;5020051;28;20056;-88
2024/01/04 01:41:24;;;;;;;4.20;3.90;;;5.80;99.90;;;;;;5003720;28;20386;-86
2024/01/04 01:43:49;;;;;;;4.32;3.92;;;5.70;99.90;;;;;;5019534;28;20053;-88
2024/01/04 01:46:15;;;;;;;5.22;4.22;;;5.70;99.90;;;;;;5019489;28;20049;-88
2024/01/04 01:48:41;;;;;;;4.47;4.07;;;5.70;99.90;;;;;;5020031;28;20084;-87
2024/01/04 01:51:08;;;;;;;4.40;4.10;;;6.20;99.90;;;;;;5035373;28;20061;-88
2024/01/04 01:53:34;;;;;;;4.30;4.00;;;5.60;99.90;;;;;;5019426;28;20053;-87
2024/01/04 01:56:00;;;;;;;4.60;4.28;;;6.10;99.90;;;;;;5035874;28;20055;-89
2024/01/04 01:58:26;;;;;;;4.47;4.13;;;5.60;99.90;;;;;;5003124;28;20049;-88
2024/01/04 02:00:52;;;;;;;4.25;3.85;;;5.60;99.90;;;;;;5035395;28;20463;-88
2024/01/04 02:03:19;;;;;;;4.72;4.20;;;5.60;99.90;;;;;;5003811;28;20520;-87
2024/01/04 02:05:44;;;;;;;4.35;4.10;;;5.60;99.90;;;;;;5019142;28;20057;-86
2024/01/04 02:08:10;;;;;;;4.57;4.18;;;5.50;99.90;;;;;;5019193;28;20042;-86
2024/01/04 02:10:36;;;;;;;4.50;4.10;;;5.50;99.90;;;;;;5019757;28;20076;-87
2024/01/04 02:13:01;;;;;;;4.07;3.80;;;5.50;99.90;;;;;;5019114;28;20045;-87
2024/01/04 02:15:27;;;;;;;4.85;4.55;;;5.50;99.90;;;;;;5019057;28;20056;-90
2024/01/04 02:17:53;;;;;;;5.18;4.32;;;5.40;99.90;;;;;;5002986;28;20450;-87
2024/01/04 02:20:19;;;;;;;4.88;4.47;;;5.60;99.90;;;;;;5018689;28;20049;-89
2024/01/04 02:22:45;;;;;;;5.05;4.75;;;5.50;99.90;;;;;;5019409;28;20049;-86
2024/01/04 02:25:11;;;;;;;6.32;5.55;;;5.40;99.90;;;;;;5034995;28;20045;-87
2024/01/04 02:27:37;;;;;;;4.65;4.35;;;5.40;99.90;;;;;;5035558;28;20045;-89
2024/01/04 02:30:03;;;;;;;4.85;4.55;;;5.50;99.90;;;;;;5018692;28;20047;-90
2024/01/04 02:32:28;;;;;;;6.07;5.53;;;5.40;99.90;;;;;;5018605;28;20049;-88
2024/01/04 02:34:54;;;;;;;5.53;5.13;;;5.40;99.90;;;;;;5002560;28;20046;-86
2024/01/04 02:37:20;;;;;;;5.25;4.85;;;5.50;99.90;;;;;;5018711;28;20049;-91
2024/01/04 02:39:46;;;;;;;5.60;5.13;;;5.50;99.90;;;;;;5018632;28;20559;-89
2024/01/04 02:42:11;;;;;;;4.45;4.20;;;5.40;99.90;;;;;;5003167;28;20131;-89
2024/01/04 02:44:37;;;;;;;5.15;4.75;;;5.40;99.90;;;;;;5002543;28;20486;-89
2024/01/04 02:47:03;;;;;;;4.65;4.20;;;5.40;99.90;;;;;;5002749;28;20047;-89
2024/01/04 02:49:29;;;;;;;5.80;4.35;;;5.40;99.90;;;;;;5018221;28;20387;-88
2024/01/04 02:51:55;;;;;;;4.78;4.38;;;5.50;99.90;;;;;;5003006;28;20140;-87
2024/01/04 02:54:21;;;;;;;5.35;3.53;;;5.50;99.90;;;;;;5001801;28;20450;-88
2024/01/04 02:56:47;;;;;;;3.72;3.22;;;5.30;99.90;;;;;;5002291;28;20426;-88
2024/01/04 02:59:12;;;;;;;4.10;3.70;;;5.30;99.90;;;;;;5035129;28;20041;-88
2024/01/04 03:01:38;;;;;;;3.70;3.40;;;5.20;99.90;;;;;;5018170;28;20041;-88
2024/01/04 03:04:04;;;;;;;4.03;3.20;;;5.30;99.90;;;;;;5034982;28;20457;-91
2024/01/04 03:06:30;;;;;;;3.85;3.60;;;5.20;99.90;;;;;;5018264;28;20091;-87
2024/01/04 03:08:56;;;;;;;3.60;3.40;;;5.40;99.90;;;;;;5035495;28;20083;-90
2024/01/04 03:11:22;;;;;;;3.58;3.38;;;5.70;99.90;;;;;;5018083;28;20444;-89
2024/01/04 03:13:50;;;;;;;3.92;3.63;;;5.20;99.90;;;;;;5002513;28;20079;-88
2024/01/04 03:16:19;;;;;;;7.38;3.70;;;5.40;99.90;;;;;;5002813;28;20049;-87
2024/01/04 03:18:44;;;;;;;4.00;3.70;;;5.20;99.90;;;;;;5017847;28;20509;-88
2024/01/04 03:21:10;;;;;;;3.95;3.63;;;5.30;99.90;;;;;;5001285;28;20137;-89
2024/01/04 03:23:36;;;;;;;5.78;3.83;;;5.20;99.90;;;;;;5034265;28;20132;-90
2024/01/04 03:26:02;;;;;;;4.53;4.13;;;5.60;99.90;;;;;;5017970;28;20042;-90
2024/01/04 03:28:27;;;;;;;3.67;3.45;;;5.20;99.90;;;;;;5017715;28;20462;-88
2024/01/04 03:30:53;;;;;;;4.03;3.70;;;5.20;99.90;;;;;;5034334;28;20045;-91
2024/01/04 03:33:19;;;;;;;3.85;3.55;;;5.30;99.90;;;;;;5001491;28;20132;-90
2024/01/04 03:35:44;;;;;;;3.88;3.58;;;5.20;99.90;;;;;;5016728;28;20049;-88
2024/01/04 03:38:10;;;;;;;4.72;3.28;;;5.50;99.90;;;;;;5017833;28;20087;-87
2024/01/04 03:40:36;;;;;;;3.75;3.53;;;5.10;99.90;;;;;;5017176;28;20068;-88
2024/01/04 03:43:03;;;;;;;3.72;3.50;;;5.60;99.90;;;;;;5017970;28;20128;-90
2024/01/04 03:45:30;;;;;;;4.00;3.70;;;5.10;99.90;;;;;;5002538;28;20084;-89
2024/01/04 03:47:56;;;;;;;4.10;3.55;;;5.10;99.90;;;;;;5017542;28;20052;-90
2024/01/04 03:50:22;;;;;;;3.75;3.03;;;5.20;99.90;;;;;;5034108;28;20057;-90
2024/01/04 03:52:47;;;;;;;3.58;3.28;;;5.10;99.90;;;;;;5017428;28;20105;-90
2024/01/04 03:55:15;;;;;;;3.38;3.17;;;5.10;99.90;;;;;;5033984;28;20042;-91
2024/01/04 03:57:43;;;;;;;3.42;3.17;;;5.10;99.90;;;;;;5017785;28;20436;-91
2024/01/04 04:00:09;;;;;;;4.63;3.33;;;5.30;99.90;;;;;;5033989;28;20378;-89
2024/01/04 04:02:35;;;;;;;3.70;3.40;;;5.10;99.90;;;;;;5017821;28;20064;-90
2024/01/04 04:05:00;;;;;;;3.42;3.13;;;5.10;99.90;;;;;;5001505;28;20379;-89
2024/01/04 04:07:26;;;;;;;3.28;3.08;;;5.10;99.90;;;;;;5001655;28;20382;-92
2024/01/04 04:09:52;;;;;;;2.92;2.72;;;5.00;99.90;;;;;;5000923;28;20041;-90
2024/01/04 04:12:17;;;;;;;4.40;3.08;;;5.00;99.90;;;;;;5000785;28;20081;-91
2024/01/04 04:14:43;;;;;;;3.05;2.70;;;4.90;99.90;;;;;;5017853;28;20053;-90
2024/01/04 04:17:09;;;;;;;3.22;3.03;;;5.40;99.90;;;;;;5000575;28;20045;-89
2024/01/04 04:19:35;;;;;;;3.53;3.33;;;4.80;99.90;;;;;;5017102;28;20085;-89
2024/01/04 04:22:01;;;;;;;4.90;3.08;;;4.80;99.90;;;;;;5001260;28;20103;-92
2024/01/04 04:24:26;;;;;;;3.20;3.00;;;4.60;99.90;;;;;;5016584;28;20058;-91
2024/01/04 04:26:52;;;;;;;3.30;3.00;;;4.60;99.90;;;;;;5000364;28;20143;-89
2024/01/04 04:29:18;;;;;;;3.25;3.00;;;4.60;99.90;;;;;;5000567;28;20144;-90
2024/01/04 04:31:50;;;;;;;3.28;3.08;;;4.60;99.90;;;;;;5000388;28;20053;-90
2024/01/04 04:34:15;;;;;;;5.10;3.03;;;4.60;99.90;;;;;;5001126;28;20052;-88
2024/01/04 04:36:41;;;;;;;3.10;2.90;;;4.80;99.90;;;;;;5000115;28;20067;-90
2024/01/04 04:39:08;;;;;;;3.22;2.75;;;4.70;99.90;;;;;;5000762;28;20049;-89
2024/01/04 04:41:34;;;;;;;4.80;2.80;;;4.60;99.90;;;;;;5016403;28;20049;-90
2024/01/04 04:44:00;;;;;;;3.17;2.92;;;5.40;99.90;;;;;;5000442;28;20474;-91
2024/01/04 04:46:26;;;;;;;4.60;2.95;;;4.70;99.90;;;;;;5015494;28;20114;-90
2024/01/04 04:48:56;;;;;;;2.95;2.75;;;5.40;99.90;;;;;;5017249;28;20095;-90
2024/01/04 04:51:25;;;;;;;3.25;2.97;;;5.10;99.90;;;;;;5033093;28;20049;-90
2024/01/04 04:53:54;;;;;;;3.33;3.13;;;4.60;99.90;;;;;;5001420;28;20042;-89
2024/01/04 04:56:19;;;;;;;2.97;2.78;;;4.60;99.90;;;;;;5016622;28;20045;-90
2024/01/04 04:58:45;;;;;;;3.72;3.38;;;4.60;99.90;;;;;;4999971;28;20053;-88
2024/01/04 05:01:12;;;;;;;2.95;2.75;;;4.80;99.90;;;;;;5033251;28;20429;-91
2024/01/04 05:03:38;;;;;;;4.35;3.10;;;4.70;99.90;;;;;;5016739;28;20052;-87
2024/01/04 05:06:06;;;;;;;3.53;3.22;;;4.50;99.90;;;;;;5032622;28;20103;-90
2024/01/04 05:08:32;;;;;;;4.00;3.28;;;4.50;99.90;;;;;;5033451;28;20045;-89
2024/01/04 05:10:57;;;;;;;3.83;3.40;;;4.50;99.90;;;;;;4999780;28;20045;-89
2024/01/04 05:13:23;;;;;;;3.67;3.47;;;4.40;99.90;;;;;;4999943;28;20045;-91
2024/01/04 05:15:48;;;;;;;3.60;3.40;;;5.20;99.90;;;;;;5032766;28;20041;-91
2024/01/04 05:18:14;;;;;;;3.22;3.03;;;5.00;99.90;;;;;;4999955;28;20045;-88
2024/01/04 05:20:40;;;;;;;3.33;3.13;;;4.60;99.90;;;;;;5032334;28;20065;-90
2024/01/04 05:23:07;;;;;;;3.72;3.50;;;4.70;99.90;;;;;;4999784;28;20049;-90
2024/01/04 05:25:33;;;;;;;3.70;3.47;;;4.40;99.90;;;;;;5015913;28;20045;-88
2024/01/04 05:27:59;;;;;;;3.75;3.55;;;5.10;99.90;;;;;;5033310;28;20046;-91
2024/01/04 05:30:24;;;;;;;3.78;3.47;;;4.80;99.90;;;;;;4999593;28;20060;-92
2024/01/04 05:32:50;;;;;;;3.45;3.20;;;4.40;99.90;;;;;;4999752;28;20063;-88
2024/01/04 05:35:16;;;;;;;4.03;3.70;;;4.40;99.90;;;;;;5000312;28;20415;-89
2024/01/04 05:37:41;;;;;;;3.67;3.47;;;4.30;99.90;;;;;;5016663;28;20467;-88
2024/01/04 05:40:09;;;;;;;3.83;3.53;;;4.40;99.90;;;;;;5032948;28;20459;-88
2024/01/04 05:42:35;;;;;;;3.90;3.70;;;4.30;99.90;;;;;;5016341;28;20494;-91
2024/01/04 05:45:00;;;;;;;3.75;3.45;;;4.30;99.90;;;;;;5032511;28;20045;-92
2024/01/04 05:47:26;;;;;;;4.07;3.63;;;4.30;99.90;;;;;;5033075;28;20045;-88
2024/01/04 05:49:52;;;;;;;6.22;4.00;;;4.30;99.90;;;;;;5031971;28;20053;-90
2024/01/04 05:52:17;;;;;;;4.15;3.75;;;4.20;99.90;;;;;;5015846;28;20088;-88
2024/01/04 05:54:43;;;;;;;3.80;3.60;;;4.20;99.90;;;;;;5000073;28;20137;-87
2024/01/04 05:57:09;;;;;;;3.90;3.70;;;4.20;99.90;;;;;;5015649;28;20053;-88
2024/01/04 05:59:35;;;;;;;4.22;4.00;;;4.20;99.90;;;;;;5019104;28;20049;-89
2024/01/04 06:02:00;;;;;;;4.03;3.47;;;4.50;99.90;;;;;;5019166;28;20045;-88
2024/01/04 06:04:26;;;;;;;4.57;4.00;;;4.20;99.90;;;;;;5002940;28;20041;-87
2024/01/04 06:06:53;;;;;;;4.82;3.80;;;4.60;99.90;;;;;;5002936;28;20401;-88
2024/01/04 06:09:20;;;;;;;4.07;3.88;;;4.40;99.90;;;;;;5003244;28;20045;-87
2024/01/04 06:11:50;;;;;;;4.43;3.63;;;4.20;99.90;;;;;;5002727;28;20087;-87
2024/01/04 06:14:17;;;;;;;3.35;3.15;;;4.50;99.90;;;;;;5003126;28;20486;-88
2024/01/04 06:16:42;;;;;;;4.15;3.80;;;4.10;99.90;;;;;;5035598;28;20558;-87
2024/01/04 06:19:08;;;;;;;4.32;4.03;;;4.20;99.90;;;;;;5018995;28;20139;-88
2024/01/04 06:21:34;;;;;;;4.10;3.80;;;4.20;99.90;;;;;;5002302;28;20045;-88
2024/01/04 06:24:00;;;;;;;3.50;3.30;;;4.60;99.90;;;;;;5019143;28;20066;-89
2024/01/04 06:26:25;;;;;;;3.75;3.42;;;4.10;99.90;;;;;;5018890;28;20053;-91
2024/01/04 06:28:51;;;;;;;3.83;3.53;;;4.80;99.90;;;;;;5018852;28;20049;-88
2024/01/04 06:31:17;;;;;;;4.13;3.83;;;4.20;99.90;;;;;;5036079;28;20099;-88
2024/01/04 06:33:42;;;;;;;3.65;3.35;;;4.00;99.90;;;;;;5018778;28;20081;-89
2024/01/04 06:36:08;;;;;;;4.47;4.18;;;4.00;99.90;;;;;;5002354;28;20041;-88
2024/01/04 06:38:37;;;;;;;3.72;3.53;;;4.00;99.90;;;;;;5019290;28;20466;-88
2024/01/04 06:41:03;;;;;;;4.20;3.95;;;4.00;99.90;;;;;;5019115;28;20087;-88
2024/01/04 06:43:30;;;;;;;4.38;4.10;;;4.00;99.90;;;;;;5002461;28;20433;-89
2024/01/04 06:45:57;;;;;;;3.80;3.55;;;4.00;99.90;;;;;;5035780;28;20057;-88
2024/01/04 06:48:23;;;;;;;4.00;3.75;;;4.80;99.90;;;;;;5002867;28;20387;-89
2024/01/04 06:50:49;;;;;;;5.95;4.15;;;4.30;99.90;;;;;;5017866;28;20137;-88
2024/01/04 06:53:15;;;;;;;4.60;4.30;;;3.90;99.90;;;;;;5018382;28;20512;-90
2024/01/04 06:55:41;;;;;;;4.85;4.65;;;4.50;99.90;;;;;;5019063;28;20136;-89
2024/01/04 06:58:09;;;;;;;4.90;4.50;;;4.20;99.90;;;;;;5018527;28;20091;-90
2024/01/04 07:00:35;;;;;;;4.82;4.43;;;4.10;99.90;;;;;;5018257;28;20513;-90
2024/01/04 07:03:01;;;;;;;4.68;4.40;;;4.50;99.90;;;;;;5034453;28;20486;-89
2024/01/04 07:05:27;;;;;;;4.82;4.45;;;4.70;99.90;;;;;;5001797;28;20103;-89
2024/01/04 07:07:52;;;;;;;5.35;5.05;;;3.90;99.90;;;;;;5017719;28;20072;-89
2024/01/04 07:10:18;;;;;;;5.20;4.90;;;3.90;99.90;;;;;;5017386;28;20132;-82
2024/01/04 07:12:43;;;;;;;5.88;5.28;;;3.90;99.90;;;;;;5034552;28;20489;-84
2024/01/04 07:15:10;;;;;;;5.35;4.20;;;3.90;99.90;;;;;;5017813;28;20483;-84
2024/01/04 07:17:36;;;;;;;4.50;4.20;;;3.90;99.90;;;;;;5018558;28;20497;-84
2024/01/04 07:20:03;;;;;;;5.35;4.90;;;4.20;99.90;;;;;;5018484;28;20045;-84
2024/01/04 07:22:29;;;;;;;4.97;4.65;;;3.90;99.90;;;;;;5017881;28;20492;-85
2024/01/04 07:24:56;;;;;;;4.43;4.13;;;4.00;99.90;;;;;;5033917;28;20092;-83
2024/01/04 07:27:22;;;;;;;5.07;4.45;;;4.00;99.90;;;;;;5017666;28;20053;-85
2024/01/04 07:29:48;;;;;;;4.90;4.60;;;4.00;99.90;;;;;;5001118;28;20041;-84
2024/01/04 07:32:18;;;;;;;4.88;4.50;;;4.50;99.90;;;;;;5017546;28;20105;-84
2024/01/04 07:34:44;;;;;;;4.10;3.83;;;4.00;99.90;;;;;;5034303;28;20136;-84
2024/01/04 07:37:11;;;;;;;4.20;4.00;;;4.30;99.90;;;;;;5034012;28;20044;-84
2024/01/04 07:39:36;;;;;;;4.32;4.13;;;4.00;99.90;;;;;;5000836;28;20096;-84
2024/01/04 07:42:02;;;;;;;4.63;4.43;;;4.40;99.90;;;;;;5017643;28;20072;-83
2024/01/04 07:44:28;;;;;;;4.13;3.92;;;4.00;99.90;;;;;;5034027;28;20046;-84
2024/01/04 07:46:54;;;;;;;4.82;4.53;;;4.40;99.90;;;;;;5001107;28;20041;-83
2024/01/04 07:49:19;;;;;;;5.45;5.15;;;4.20;99.90;;;;;;5033618;28;20060;-83
2024/01/04 07:51:45;;;;;;;4.70;4.30;;;3.90;99.90;;;;;;5017528;28;20144;-83
2024/01/04 07:54:11;;;;;;;4.93;4.53;;;3.90;99.90;;;;;;5033003;28;20054;-84
2024/01/04 07:56:38;;;;;;;4.45;4.22;;;3.90;99.90;;;;;;5017428;28;20049;-84
2024/01/04 07:59:04;;;;;;;4.88;4.53;;;3.90;99.90;;;;;;5017289;28;20052;-84
2024/01/04 08:01:30;;;;;;;4.50;4.13;;;3.90;99.90;;;;;;5016587;28;20042;-84
2024/01/04 08:03:56;;;;;;;4.97;4.68;;;4.00;99.90;;;;;;5034165;28;20390;-86
2024/01/04 08:06:21;;;;;;;5.35;4.82;;;3.90;99.90;;;;;;5000966;28;20044;-85
2024/01/04 08:08:47;;;;;;;5.07;4.65;;;3.90;99.90;;;;;;5033191;28;20045;-85
2024/01/04 08:11:13;;;;;;;4.75;4.55;;;4.40;99.90;;;;;;5016867;28;20049;-84
2024/01/04 08:13:38;;;;;;;5.18;4.78;;;4.00;99.90;;;;;;5000575;28;20044;-89
2024/01/04 08:16:07;;;;;;;4.90;4.70;;;4.00;99.90;;;;;;5016838;28;20077;-91
2024/01/04 08:18:41;;;;;;;4.90;4.60;;;4.00;99.90;;;;;;5017800;28;20081;-91
2024/01/04 08:21:12;;;;;;;4.88;4.47;;;4.00;99.90;;;;;;5002861;28;20136;-90
2024/01/04 08:23:42;;;;;;;4.78;4.47;;;4.50;99.90;;;;;;5033763;28;20041;-90
2024/01/04 08:26:08;;;;;;;4.72;4.53;;;4.00;99.90;;;;;;5016618;28;20060;-88
2024/01/04 08:28:36;;;;;;;5.30;4.90;;;3.90;99.90;;;;;;5016038;28;20127;-88
2024/01/04 08:31:02;;;;;;;4.47;4.10;;;4.70;99.90;;;;;;5016408;28;20042;-87
2024/01/04 08:33:28;;;;;;;4.43;4.22;;;4.00;99.90;;;;;;5016515;28;20048;-88
2024/01/04 08:35:56;;;;;;;4.93;4.63;;;4.10;99.90;;;;;;5017174;28;20045;-92
2024/01/04 08:38:27;;;;;;;5.38;4.97;;;3.90;99.90;;;;;;5017032;28;20045;-89
2024/01/04 08:40:58;;;;;;;5.20;4.90;;;4.90;99.90;;;;;;5002716;28;20033;-92
2024/01/04 08:43:29;;;;;;;5.18;4.78;;;4.10;99.90;;;;;;5034443;28;20068;-94
2024/01/04 08:46:04;;;;;;;4.20;4.00;;;3.40;99.90;;;;;;5036873;28;20049;-92
2024/01/04 08:48:43;;;;;;;4.40;4.10;;;4.00;99.90;;;;;;5020375;28;20119;-93
2024/01/04 08:51:09;;;;;;;3.90;3.70;;;4.00;99.90;;;;;;5034337;28;20085;-92
2024/01/04 08:53:37;;;;;;;3.88;3.63;;;;;;;;;;5036753;28;20072;-92
2024/01/04 08:56:17;;;;;;;4.68;4.15;;;4.00;99.90;;;;;;5018400;28;20091;-95
2024/01/04 08:58:43;;;;;;;4.28;4.07;;;4.00;99.90;;;;;;5033574;28;20084;-87
2024/01/04 09:01:08;;;;;;;4.70;4.40;;;4.40;99.90;;;;;;5015738;28;20064;-86
2024/01/04 09:03:34;;;;;;;4.97;4.68;;;5.10;99.90;;;;;;5016353;28;20443;-89
2024/01/04 09:06:06;;;;;;;5.32;4.93;;;4.10;99.90;;;;;;4999619;28;20079;-88
2024/01/04 09:08:35;;;;;;;4.63;4.32;;;;;;;;;;5033491;28;20037;-90
2024/01/04 09:11:03;;;;;;;5.57;4.85;;;4.20;99.90;;;;;;5016194;28;20128;-91
2024/01/04 09:13:34;;;;;;;5.10;4.80;;;4.20;99.90;;;;;;5017206;28;20481;-90
2024/01/04 09:16:00;;;;;;;4.60;4.40;;;4.20;99.90;;;;;;5016282;28;20048;-90
2024/01/04 09:18:25;;;;;;;4.53;4.13;;;4.20;99.90;;;;;;5016321;28;20053;-91
2024/01/04 09:20:54;;;;;;;4.28;3.97;;;5.10;99.90;;;;;;5032582;28;20127;-91
2024/01/04 09:23:23;;;;;;;4.18;3.85;;;4.30;99.90;;;;;;5016435;28;20037;-91
2024/01/04 09:25:51;;;;;;;4.20;4.00;;;4.40;99.90;;;;;;5032679;28;20038;-92
2024/01/04 09:28:26;;;;;;;4.10;3.90;;;4.30;99.90;;;;;;5033133;28;20049;-92
2024/01/04 09:30:52;;;;;;;3.78;3.58;;;4.40;99.90;;;;;;5016893;28;20474;-91
2024/01/04 09:33:21;;;;;;;4.72;4.15;;;4.40;99.90;;;;;;5033873;28;20045;-90
2024/01/04 09:35:56;;;;;;;4.00;3.80;;;5.10;99.90;;;;;;5003660;28;20069;-90
2024/01/04 09:38:22;;;;;;;5.27;4.40;;;4.40;99.90;;;;;;5005195;28;20049;-90
2024/01/04 09:40:51;;;;;;;4.65;3.80;;;4.40;99.90;;;;;;5019158;28;20358;-90
2024/01/04 09:43:18;;;;;;;3.50;3.20;;;4.50;99.90;;;;;;5019413;28;20128;-89
2024/01/04 09:45:47;;;;;;;4.40;4.13;;;4.50;99.90;;;;;;5019404;28;20049;-90
2024/01/04 09:48:15;;;;;;;4.13;3.70;;;4.20;99.90;;;;;;5019363;28;20044;-90
2024/01/04 09:50:41;;;;;;;3.80;3.50;;;4.60;99.90;;;;;;5020237;28;20065;-91
2024/01/04 09:53:08;;;;;;;3.78;3.40;;;4.10;99.90;;;;;;5019664;28;20034;-89
2024/01/04 09:58:52;;;;;;;3.85;3.55;;;4.70;99.90;;;;;;5039471;28;20388;-94
2024/01/04 10:01:36;;;;;;;3.15;2.83;;;4.70;99.90;;;;;;5025843;28;20037;-93
2024/01/04 10:04:06;;;;;;;3.33;3.13;;;4.70;99.90;;;;;;5020347;28;20542;-90
2024/01/04 10:06:35;;;;;;;3.20;2.90;;;4.70;99.90;;;;;;5003439;28;20041;-90
2024/01/04 10:09:37;;;;;;;2.40;2.20;;;4.80;99.90;;;;;;5019725;28;20539;-91
2024/01/04 10:12:15;;;;;;;2.90;2.67;;;4.70;99.90;;;;;;5015995;28;20045;-90
2024/01/04 10:14:43;;;;;;;3.42;3.20;;;4.70;99.90;;;;;;5036377;28;20045;-87
2024/01/04 10:17:17;;;;;;;4.15;3.17;;;;;;;;;;5019214;28;20048;-90
2024/01/04 10:19:54;;;;;;;3.15;2.85;;;4.90;99.90;;;;;;5037021;28;20053;-94
2024/01/04 10:23:05;;;;;;;2.72;2.55;;;5.00;99.90;;;;;;5010022;28;20049;-94
2024/01/04 10:25:48;;;;;;;3.45;3.10;;;5.00;99.90;;;;;;5025143;28;20029;-94
2024/01/04 10:28:39;;;;;;;2.85;2.40;;;4.50;99.90;;;;;;5009263;28;20099;-93
2024/01/04 10:31:47;;;;;;;;;;;;;;;;;;;;;
2024/01/04 10:34:29;;;;;;;;;;;;;;;;;;;;;
2024/01/04 10:37:27;;;;;;;;;;;;;;;;;;;;;
2024/01/04 10:40:09;;;;;;;2.50;2.30;;;5.10;99.90;;;;;;5020453;28;20048;-89
2024/01/04 10:42:40;;;;;;;2.80;2.60;;;5.10;99.90;;;;;;5035968;28;20432;-89
2024/01/04 10:45:11;;;;;;;2.60;2.40;;;5.10;99.90;;;;;;5017918;28;20048;-92
2024/01/04 10:48:10;;;;;;;3.28;2.50;;;5.10;99.90;;;;;;5022770;28;20466;-93
2024/01/04 10:50:38;;;;;;;3.13;2.13;;;5.10;99.90;;;;;;5024145;28;20493;-87
2024/01/04 10:53:07;;;;;;;2.70;2.50;;;5.10;99.90;;;;;;5018582;28;20473;-89
2024/01/04 10:55:39;;;;;;;2.25;2.05;;;5.10;99.90;;;;;;5019888;28;20144;-90
2024/01/04 10:58:14;;;;;;;2.30;1.90;;;4.50;99.90;;;;;;5019714;28;20045;-87
2024/01/04 11:00:43;;;;;;;5.72;2.88;;;5.70;99.90;;;;;;5018392;28;20084;-89
2024/01/04 11:03:42;;;;;;;;;;;;;;;;;;;;;
2024/01/04 11:06:34;;;;;;;;;;;;;;;;;;;;;
2024/01/04 11:09:03;;;;;;;2.40;2.20;;;5.10;99.90;;;;;;5035358;28;20041;-90
2024/01/04 11:11:39;;;;;;;2.53;2.33;;;5.20;99.90;;;;;;5034926;28;20413;-92
2024/01/04 11:14:08;;;;;;;2.40;2.20;;;5.20;99.90;;;;;;5002205;28;20132;-90
2024/01/04 11:17:02;;;;;;;2.95;2.53;;;5.60;99.90;;;;;;5027555;28;20091;-93
2024/01/04 11:19:44;;;;;;;2.92;2.72;;;5.40;99.90;;;;;;5033963;28;20051;-88
2024/01/04 11:22:56;;;;;;;3.15;2.60;;;5.50;99.90;;;;;;5017844;28;20474;-87
2024/01/04 11:25:40;;;;;;;2.78;2.38;;;5.60;99.90;;;;;;5002899;28;20490;-88
2024/01/04 11:28:08;;;;;;;3.67;2.05;;;5.70;99.90;;;;;;5017685;28;20041;-87
2024/01/04 11:30:33;;;;;;;2.80;1.95;;;5.70;99.90;;;;;;5001397;28;20037;-87
2024/01/04 11:32:59;;;;;;;2.20;2.00;;;5.70;99.90;;;;;;5034184;28;20075;-87
2024/01/04 11:35:25;;;;;;;2.53;1.88;;;5.70;99.90;;;;;;5020898;28;20071;-87
2024/01/04 11:37:52;;;;;;;2.35;2.15;;;5.70;99.90;;;;;;5017531;28;20097;-86
2024/01/04 11:40:27;;;;;;;2.30;1.80;;;5.80;99.90;;;;;;5017418;28;20037;-86
2024/01/04 11:42:53;;;;;;;3.47;2.05;;;5.70;99.90;;;;;;5018272;28;20045;-85
2024/01/04 11:45:19;;;;;;;3.10;1.65;;;5.80;99.90;;;;;;5000803;28;20084;-84
2024/01/04 11:47:46;;;;;;;2.55;2.35;;;5.70;99.90;;;;;;5001049;28;20432;-86
2024/01/04 11:50:17;;;;;;;3.92;2.08;;;5.80;99.90;;;;;;5000616;28;20053;-86
2024/01/04 11:52:45;;;;;;;4.30;2.90;;;5.80;99.90;;;;;;5034581;28;20128;-85
2024/01/04 11:55:12;;;;;;;2.40;2.10;;;5.80;99.90;;;;;;5000689;28;20072;-86
2024/01/04 11:57:39;;;;;;;2.30;2.10;;;5.80;99.90;;;;;;5001020;28;20355;-86
2024/01/04 12:00:15;;;;;;;3.05;2.20;;;5.80;99.90;;;;;;5000704;28;20410;-86
2024/01/04 12:02:41;;;;;;;2.95;2.30;;;5.70;99.90;;;;;;5033977;28;20048;-86
2024/01/04 12:05:07;;;;;;;4.10;2.28;;;5.70;99.90;;;;;;5001038;28;20064;-86
2024/01/04 12:07:35;;;;;;;2.67;2.40;;;5.70;99.90;;;;;;5017206;28;20132;-86
2024/01/04 12:10:00;;;;;;;2.80;2.42;;;5.70;99.90;;;;;;5033333;28;20045;-86
2024/01/04 12:12:26;;;;;;;2.50;2.30;;;5.80;99.90;;;;;;5033235;28;20462;-88
2024/01/04 12:14:52;;;;;;;1.92;1.52;;;5.80;99.90;;;;;;5033629;28;20037;-87
2024/01/04 12:17:20;;;;;;;2.85;2.10;;;5.80;99.90;;;;;;5000589;28;20041;-86
2024/01/04 12:19:47;;;;;;;1.90;1.80;;;5.70;99.90;;;;;;5000247;28;20041;-89
2024/01/04 12:22:13;;;;;;;2.58;2.05;;;5.80;99.90;;;;;;5000921;28;20045;-87
2024/01/04 12:24:42;;;;;;;2.67;2.47;;;6.30;99.90;;;;;;5016360;28;20363;-86
2024/01/04 12:27:08;;;;;;;2.22;2.05;;;5.80;99.90;;;;;;5016539;28;20053;-86
2024/01/04 12:29:34;;;;;;;2.50;2.30;;;5.90;99.90;;;;;;5000165;28;20053;-86
2024/01/04 12:32:05;;;;;;;1.98;1.75;;;5.80;99.90;;;;;;5000846;28;20048;-87
2024/01/04 12:34:31;;;;;;;2.72;2.53;;;5.50;99.90;;;;;;5000298;28;20045;-88
2024/01/04 12:37:06;;;;;;;3.53;2.65;;;5.80;99.90;;;;;;5001564;28;20546;-87
2024/01/04 12:39:39;;;;;;;2.97;2.78;;;5.80;99.90;;;;;;5002863;28;20413;-91
2024/01/04 12:42:12;;;;;;;3.15;2.90;;;5.90;99.90;;;;;;5034218;28;20049;-91
2024/01/04 12:44:38;;;;;;;2.40;2.20;;;5.90;99.90;;;;;;5017915;28;20069;-89
2024/01/04 12:47:11;;;;;;;2.35;2.08;;;5.90;99.90;;;;;;5019344;28;20505;-87
2024/01/04 12:49:40;;;;;;;2.90;2.70;;;5.80;99.90;;;;;;5017301;28;20493;-91
2024/01/04 12:52:11;;;;;;;2.83;2.53;;;5.80;99.90;;;;;;5017465;28;20081;-91
2024/01/04 12:55:02;;;;;;;;;;;;;;;;;;;;;
2024/01/04 12:57:28;;;;;;;3.13;2.25;;;5.40;99.90;;;;;;5033546;28;20038;-93
2024/01/04 13:00:04;;;;;;;3.60;2.90;;;5.90;99.90;;;;;;5033715;28;20136;-88
2024/01/04 13:02:36;;;;;;;2.35;2.15;;;5.90;99.90;;;;;;5016457;28;20056;-87
2024/01/04 13:05:01;;;;;;;2.65;2.30;;;5.90;99.90;;;;;;5000290;28;20041;-86
2024/01/04 13:07:27;;;;;;;2.60;2.40;;;5.80;99.90;;;;;;4999806;28;20095;-88
2024/01/04 13:09:56;;;;;;;2.40;2.10;;;5.70;99.90;;;;;;5000914;28;20049;-87
2024/01/04 13:12:22;;;;;;;2.58;2.38;;;5.70;99.90;;;;;;5018093;28;20037;-87
2024/01/04 13:14:47;;;;;;;3.05;2.50;;;5.30;99.90;;;;;;5032910;28;20112;-91